Time;durP1;ratioP1;P1;durP2;ratioP2;P2;SDS_P1;SDS_P2;PMS_P1;PMS_P2;Temp;Humidity;BMP_temperature;BMP_pressure;BME280_temperature;BME280_humidity;BME280_pressure;Samples;Min_cycle;Max_cycle;Signal;HPM_P1;HPM_P2
2022/08/08 00:02:07;;;;;;;7.00;2.40;;;14.90;99.90;;;;;;4897414;29;20079;-87
2022/08/08 00:05:22;;;;;;;6.78;2.53;;;15.10;99.90;;;;;;4910769;29;20048;-88
2022/08/08 00:08:50;;;;;;;6.15;2.15;;;14.90;99.90;;;;;;4913905;29;20051;-88
2022/08/08 00:11:34;;;;;;;6.55;2.30;;;14.90;99.90;;;;;;4910904;29;20051;-87
2022/08/08 00:14:39;;;;;;;6.18;2.20;;;14.90;99.90;;;;;;4897841;29;20040;-88
2022/08/08 00:17:38;;;;;;;8.43;2.50;;;14.90;99.90;;;;;;4921002;28;20105;-88
2022/08/08 00:20:09;;;;;;;7.72;2.50;;;14.90;99.90;;;;;;4949843;28;20042;-87
2022/08/08 00:22:53;;;;;;;6.85;2.50;;;14.80;99.90;;;;;;4932429;29;20039;-88
2022/08/08 00:25:37;;;;;;;7.13;2.53;;;14.90;99.90;;;;;;4930925;29;20050;-88
2022/08/08 00:28:08;;;;;;;7.25;2.40;;;14.90;99.90;;;;;;4935043;29;20413;-88
2022/08/08 00:30:38;;;;;;;7.95;2.53;;;14.90;99.90;;;;;;4948549;28;20039;-87
2022/08/08 00:33:11;;;;;;;8.27;2.90;;;14.90;99.90;;;;;;4968877;28;20054;-88
2022/08/08 00:35:52;;;;;;;9.63;3.20;;;14.90;99.90;;;;;;4951016;28;20046;-88
2022/08/08 00:38:51;;;;;;;8.23;2.55;;;14.90;99.90;;;;;;4950522;28;20042;-87
2022/08/08 00:41:23;;;;;;;7.65;2.78;;;14.90;99.90;;;;;;4967554;28;20089;-88
2022/08/08 00:44:21;;;;;;;9.27;2.80;;;14.90;99.90;;;;;;4951289;28;20066;-87
2022/08/08 00:47:15;;;;;;;7.53;2.70;;;14.90;99.90;;;;;;4967327;28;20050;-87
2022/08/08 00:49:50;;;;;;;9.18;2.83;;;14.90;99.90;;;;;;4958191;28;20133;-87
2022/08/08 00:52:34;;;;;;;10.48;3.15;;;15.00;99.90;;;;;;4976804;28;20094;-88
2022/08/08 00:55:21;;;;;;;10.75;3.20;;;15.00;99.90;;;;;;4952971;28;20058;-87
2022/08/08 00:58:08;;;;;;;8.98;3.00;;;15.00;99.90;;;;;;4951741;28;20038;-87
2022/08/08 01:00:53;;;;;;;7.70;2.80;;;15.00;99.90;;;;;;4968316;28;20038;-87
2022/08/08 01:03:38;;;;;;;9.93;3.17;;;15.00;99.90;;;;;;4950510;28;20082;-87
2022/08/08 01:06:06;;;;;;;8.23;3.00;;;15.00;99.90;;;;;;4954158;28;20304;-87
2022/08/08 01:09:00;;;;;;;9.50;3.00;;;15.10;99.90;;;;;;4953744;28;20046;-87
2022/08/08 01:11:55;;;;;;;7.93;3.10;;;15.10;99.90;;;;;;4954748;28;20047;-87
2022/08/08 01:14:59;;;;;;;8.30;3.08;;;15.00;99.90;;;;;;4951620;28;20069;-87
2022/08/08 01:17:50;;;;;;;7.15;2.67;;;15.10;99.90;;;;;;4966292;28;20197;-87
2022/08/08 01:20:24;;;;;;;9.07;3.10;;;15.00;99.90;;;;;;4949320;28;20054;-88
2022/08/08 01:23:15;;;;;;;8.40;3.00;;;15.00;99.90;;;;;;4968607;28;20042;-87
2022/08/08 01:26:06;;;;;;;7.32;2.88;;;15.00;99.90;;;;;;4969405;28;20050;-88
2022/08/08 01:29:04;;;;;;;8.57;2.92;;;15.00;99.90;;;;;;4951341;28;20043;-87
2022/08/08 01:31:49;;;;;;;7.45;2.83;;;14.90;99.90;;;;;;4953098;28;20074;-88
2022/08/08 01:34:36;;;;;;;7.55;3.10;;;14.90;99.90;;;;;;4961706;28;20035;-88
2022/08/08 01:37:52;;;;;;;7.32;2.95;;;14.90;99.90;;;;;;4957219;28;20520;-87
2022/08/08 01:40:31;;;;;;;8.98;3.10;;;14.90;99.90;;;;;;4963352;28;20049;-87
2022/08/08 01:43:22;;;;;;;9.50;3.38;;;15.00;99.90;;;;;;4951151;28;20102;-87
2022/08/08 01:45:51;;;;;;;7.70;2.92;;;15.00;99.90;;;;;;4968236;28;20475;-87
2022/08/08 01:48:41;;;;;;;8.73;3.30;;;15.00;99.90;;;;;;4967305;28;20046;-88
2022/08/08 01:51:28;;;;;;;9.15;4.20;;;15.00;99.90;;;;;;4945320;28;20385;-88
2022/08/08 01:54:21;;;;;;;10.05;3.80;;;15.00;99.90;;;;;;4949292;28;20038;-87
2022/08/08 01:57:32;;;;;;;8.20;3.20;;;15.00;99.90;;;;;;4931734;28;20058;-88
2022/08/08 02:00:19;;;;;;;10.73;3.13;;;15.00;99.90;;;;;;4945144;28;20133;-88
2022/08/08 02:03:07;;;;;;;9.23;3.60;;;15.00;99.90;;;;;;4966840;28;20121;-88
2022/08/08 02:06:04;;;;;;;8.73;3.35;;;15.00;99.90;;;;;;4964080;28;20543;-88
2022/08/08 02:08:42;;;;;;;8.93;3.45;;;15.00;99.90;;;;;;4965865;28;20119;-88
2022/08/08 02:11:26;;;;;;;9.63;3.47;;;15.00;99.90;;;;;;4951062;28;20034;-87
2022/08/08 02:13:54;;;;;;;8.60;3.30;;;15.00;99.90;;;;;;4965642;28;20042;-88
2022/08/08 02:16:44;;;;;;;9.30;3.45;;;15.00;99.90;;;;;;4951562;28;20078;-87
2022/08/08 02:19:19;;;;;;;7.57;3.03;;;15.00;99.90;;;;;;4965291;28;20035;-88
2022/08/08 02:22:30;;;;;;;12.70;3.22;;;15.00;99.90;;;;;;4963199;28;20404;-87
2022/08/08 02:25:05;;;;;;;8.00;3.00;;;15.00;99.90;;;;;;4966473;28;20077;-88
2022/08/08 02:27:52;;;;;;;8.15;3.15;;;15.00;99.90;;;;;;4949743;28;20097;-88
2022/08/08 02:30:25;;;;;;;8.20;3.03;;;15.00;99.90;;;;;;4951236;28;20058;-88
2022/08/08 02:33:05;;;;;;;8.70;2.80;;;14.90;99.90;;;;;;4965506;28;20413;-88
2022/08/08 02:35:45;;;;;;;7.68;3.17;;;15.00;99.90;;;;;;4963760;28;20058;-87
2022/08/08 02:38:29;;;;;;;8.98;3.00;;;15.00;99.90;;;;;;4945515;28;20431;-88
2022/08/08 02:41:13;;;;;;;8.00;2.80;;;15.00;99.90;;;;;;4954996;28;20035;-87
2022/08/08 02:44:24;;;;;;;8.70;2.90;;;15.00;99.90;;;;;;4963347;28;20102;-87
2022/08/08 02:47:08;;;;;;;10.13;3.00;;;15.00;99.90;;;;;;4950770;28;20122;-87
2022/08/08 02:49:55;;;;;;;11.15;3.38;;;15.00;99.90;;;;;;4951219;28;20388;-87
2022/08/08 02:52:44;;;;;;;9.25;3.10;;;15.00;99.90;;;;;;4945009;28;20460;-87
2022/08/08 02:55:31;;;;;;;8.48;3.45;;;15.00;99.90;;;;;;4948363;28;20512;-88
2022/08/08 02:58:09;;;;;;;11.50;3.58;;;15.00;99.90;;;;;;4960126;28;20043;-87
2022/08/08 03:00:35;;;;;;;11.73;3.40;;;15.00;99.90;;;;;;4967418;28;20121;-87
2022/08/08 03:03:28;;;;;;;9.52;3.17;;;15.00;99.90;;;;;;4947221;28;20039;-87
2022/08/08 03:05:57;;;;;;;;;;;15.00;99.90;;;;;;4951211;28;20038;-87
2022/08/08 03:09:06;;;;;;;7.70;3.08;;;14.90;99.90;;;;;;4951214;28;19948;-88
2022/08/08 03:11:59;;;;;;;8.85;3.08;;;15.00;99.90;;;;;;4962630;28;20031;-87
2022/08/08 03:14:46;;;;;;;10.23;3.00;;;15.00;99.90;;;;;;4949182;28;20053;-88
2022/08/08 03:17:16;;;;;;;9.50;3.10;;;15.00;99.90;;;;;;4950265;28;20035;-87
2022/08/08 03:20:07;;;;;;;8.82;3.25;;;15.00;99.90;;;;;;4934548;28;20511;-87
2022/08/08 03:22:52;;;;;;;8.55;3.08;;;15.10;99.90;;;;;;4953153;28;20520;-87
2022/08/08 03:25:21;;;;;;;10.40;3.85;;;15.10;99.90;;;;;;4938475;28;20054;-87
2022/08/08 03:28:01;;;;;;;8.88;3.10;;;15.10;99.90;;;;;;4954034;28;20039;-88
2022/08/08 03:30:30;;;;;;;;;;;15.10;99.90;;;;;;4954159;28;21059;-87
2022/08/08 03:33:17;;;;;;;9.13;3.42;;;14.20;99.90;;;;;;4968406;28;19932;-88
2022/08/08 03:35:51;;;;;;;9.95;3.47;;;15.10;99.90;;;;;;4944756;28;20043;-87
2022/08/08 03:38:21;;;;;;;9.75;3.83;;;15.10;99.90;;;;;;4953266;28;20125;-87
2022/08/08 03:40:54;;;;;;;9.60;3.85;;;15.10;99.90;;;;;;4937527;28;20043;-87
2022/08/08 03:43:20;;;;;;;9.73;4.22;;;15.20;99.90;;;;;;4950701;28;20311;-87
2022/08/08 03:45:46;;;;;;;10.18;4.38;;;15.10;99.90;;;;;;4954708;28;20043;-87
2022/08/08 03:48:12;;;;;;;9.15;4.53;;;15.20;99.90;;;;;;4953074;28;20133;-87
2022/08/08 03:50:48;;;;;;;10.25;5.10;;;15.20;99.90;;;;;;4953644;28;20057;-87
2022/08/08 03:53:16;;;;;;;10.57;5.00;;;15.20;99.90;;;;;;4967129;28;20050;-87
2022/08/08 03:55:44;;;;;;;11.15;5.25;;;15.20;99.90;;;;;;4937033;28;20051;-87
2022/08/08 03:58:22;;;;;;;10.85;5.10;;;15.20;99.90;;;;;;4954178;28;20089;-87
2022/08/08 04:00:56;;;;;;;10.30;4.85;;;15.20;99.90;;;;;;4971198;28;20042;-87
2022/08/08 04:03:23;;;;;;;11.25;4.75;;;15.20;99.90;;;;;;4951899;28;20615;-87
2022/08/08 04:05:49;;;;;;;12.23;4.93;;;15.20;99.90;;;;;;4938532;28;20038;-87
2022/08/08 04:08:36;;;;;;;9.98;4.70;;;15.30;99.90;;;;;;4944953;28;20092;-87
2022/08/08 04:11:04;;;;;;;10.65;5.20;;;15.30;99.90;;;;;;4950207;28;20133;-87
2022/08/08 04:13:30;;;;;;;15.93;5.38;;;15.30;99.90;;;;;;4953058;28;20043;-87
2022/08/08 04:15:56;;;;;;;10.00;5.18;;;15.30;99.90;;;;;;4954569;28;20099;-87
2022/08/08 04:18:21;;;;;;;11.07;5.18;;;15.40;99.90;;;;;;4959627;28;20101;-88
2022/08/08 04:20:47;;;;;;;10.93;4.40;;;15.40;99.90;;;;;;4971454;28;20046;-88
2022/08/08 04:23:13;;;;;;;13.32;4.45;;;15.40;99.90;;;;;;4953181;28;20035;-88
2022/08/08 04:25:40;;;;;;;10.32;3.90;;;15.40;99.90;;;;;;4937678;28;20138;-87
2022/08/08 04:28:07;;;;;;;8.63;3.83;;;15.40;99.90;;;;;;4935384;29;20043;-87
2022/08/08 04:30:34;;;;;;;8.55;3.75;;;15.40;99.90;;;;;;4940912;28;20050;-87
2022/08/08 04:32:59;;;;;;;10.52;3.60;;;15.40;99.90;;;;;;4937748;28;20051;-87
2022/08/08 04:35:26;;;;;;;15.40;4.03;;;15.40;99.90;;;;;;4921489;28;20060;-87
2022/08/08 04:37:54;;;;;;;11.48;4.15;;;15.50;99.90;;;;;;4955000;28;20109;-88
2022/08/08 04:40:21;;;;;;;11.68;4.20;;;15.50;99.90;;;;;;4938429;28;20621;-87
2022/08/08 04:42:47;;;;;;;9.38;4.18;;;15.50;99.90;;;;;;4939963;28;20479;-87
2022/08/08 04:45:13;;;;;;;10.65;4.63;;;15.50;99.90;;;;;;4933827;28;20038;-87
2022/08/08 04:47:39;;;;;;;11.07;4.22;;;15.50;99.90;;;;;;4934595;28;20519;-87
2022/08/08 04:50:06;;;;;;;10.77;4.43;;;14.80;99.90;;;;;;4937550;28;20042;-87
2022/08/08 04:52:32;;;;;;;9.80;4.82;;;15.50;99.90;;;;;;4935906;28;20389;-87
2022/08/08 04:54:58;;;;;;;15.30;4.82;;;15.60;99.90;;;;;;4950753;28;20512;-87
2022/08/08 04:57:24;;;;;;;12.15;4.50;;;15.60;99.90;;;;;;4936590;28;20046;-87
2022/08/08 04:59:50;;;;;;;12.07;4.38;;;15.60;99.90;;;;;;4950932;28;20045;-87
2022/08/08 05:02:16;;;;;;;12.90;4.03;;;15.60;99.90;;;;;;4948947;28;20097;-87
2022/08/08 05:04:42;;;;;;;9.85;3.90;;;15.60;99.90;;;;;;4934166;28;20421;-87
2022/08/08 05:07:09;;;;;;;11.93;3.97;;;15.40;99.90;;;;;;4935358;28;20039;-87
2022/08/08 05:09:35;;;;;;;11.32;3.78;;;15.60;99.90;;;;;;4946798;28;20484;-87
2022/08/08 05:12:02;;;;;;;10.82;4.20;;;15.60;99.90;;;;;;4967112;28;20456;-87
2022/08/08 05:14:28;;;;;;;11.13;4.05;;;15.60;99.90;;;;;;4948100;28;20130;-88
2022/08/08 05:16:55;;;;;;;9.95;4.40;;;15.60;99.90;;;;;;4938259;28;20043;-88
2022/08/08 05:19:21;;;;;;;11.18;4.30;;;15.70;99.90;;;;;;4935164;28;20038;-88
2022/08/08 05:21:48;;;;;;;9.18;4.05;;;15.70;99.90;;;;;;4950782;28;20039;-88
2022/08/08 05:24:15;;;;;;;10.07;4.00;;;15.70;99.90;;;;;;4920560;28;20066;-87
2022/08/08 05:26:45;;;;;;;9.30;3.95;;;15.70;99.90;;;;;;4934371;28;20046;-87
2022/08/08 05:29:11;;;;;;;11.45;4.60;;;15.80;99.90;;;;;;4934876;28;20077;-88
2022/08/08 05:31:38;;;;;;;10.88;4.43;;;15.80;99.90;;;;;;4937302;28;20496;-87
2022/08/08 05:34:09;;;;;;;10.57;4.50;;;15.80;99.90;;;;;;4936296;28;20442;-87
2022/08/08 05:36:37;;;;;;;10.30;4.20;;;15.90;99.90;;;;;;4950973;28;20065;-88
2022/08/08 05:39:04;;;;;;;12.82;4.75;;;15.90;99.90;;;;;;4947415;28;20098;-87
2022/08/08 05:41:34;;;;;;;10.10;4.03;;;15.90;99.90;;;;;;4948735;28;20463;-88
2022/08/08 05:44:10;;;;;;;11.65;4.15;;;16.00;99.90;;;;;;4954023;28;20255;-87
2022/08/08 05:46:37;;;;;;;9.38;3.67;;;16.00;99.90;;;;;;4968678;28;20045;-87
2022/08/08 05:49:03;;;;;;;10.13;3.63;;;16.10;99.90;;;;;;4968657;28;20109;-88
2022/08/08 05:51:29;;;;;;;10.77;3.60;;;16.10;99.90;;;;;;4934507;29;20492;-88
2022/08/08 05:53:56;;;;;;;9.75;3.80;;;16.20;99.90;;;;;;4958492;28;20057;-87
2022/08/08 05:56:22;;;;;;;12.13;4.00;;;16.30;99.90;;;;;;4977623;28;20059;-88
2022/08/08 05:59:01;;;;;;;10.43;3.65;;;16.30;99.90;;;;;;4937331;28;20039;-87
2022/08/08 06:01:28;;;;;;;11.65;3.95;;;16.30;99.90;;;;;;4952317;28;20085;-87
2022/08/08 06:04:00;;;;;;;13.00;3.70;;;16.40;99.90;;;;;;4922269;28;20400;-87
2022/08/08 06:06:27;;;;;;;10.27;3.50;;;16.40;99.90;;;;;;4953083;28;20065;-87
2022/08/08 06:08:57;;;;;;;9.98;3.60;;;16.50;99.90;;;;;;4954757;28;20042;-86
2022/08/08 06:11:24;;;;;;;11.13;3.53;;;16.60;99.90;;;;;;4964122;28;20341;-84
2022/08/08 06:13:50;;;;;;;12.13;3.80;;;16.60;99.90;;;;;;4956447;28;20074;-85
2022/08/08 06:16:16;;;;;;;11.07;3.80;;;16.70;99.90;;;;;;4932884;28;20154;-83
2022/08/08 06:18:42;;;;;;;13.23;4.20;;;16.80;99.90;;;;;;4950981;28;20555;-86
2022/08/08 06:21:08;;;;;;;12.05;4.60;;;16.80;99.90;;;;;;4951145;28;20075;-86
2022/08/08 06:23:34;;;;;;;11.45;4.20;;;16.80;99.90;;;;;;4965197;28;20058;-86
2022/08/08 06:26:05;;;;;;;11.52;4.13;;;16.90;99.90;;;;;;4949217;28;20042;-85
2022/08/08 06:28:34;;;;;;;11.02;4.03;;;16.90;99.90;;;;;;4962745;28;20054;-86
2022/08/08 06:31:01;;;;;;;12.40;4.20;;;17.00;99.90;;;;;;4967195;28;20039;-85
2022/08/08 06:33:37;;;;;;;9.73;3.50;;;17.00;99.90;;;;;;4935742;28;20055;-85
2022/08/08 06:36:04;;;;;;;10.55;3.75;;;17.10;99.90;;;;;;4969648;28;20039;-85
2022/08/08 06:38:36;;;;;;;10.95;3.80;;;17.20;99.90;;;;;;4935160;28;20050;-85
2022/08/08 06:41:05;;;;;;;11.05;3.80;;;17.20;99.90;;;;;;4968564;28;20070;-85
2022/08/08 06:43:35;;;;;;;11.52;3.92;;;17.30;99.90;;;;;;4967046;28;20038;-85
2022/08/08 06:46:04;;;;;;;8.93;3.67;;;17.30;99.90;;;;;;4952796;28;20097;-85
2022/08/08 06:48:30;;;;;;;9.90;3.70;;;17.40;99.90;;;;;;4948778;28;20460;-85
2022/08/08 06:50:57;;;;;;;11.35;4.38;;;17.40;99.90;;;;;;4949149;28;20059;-85
2022/08/08 06:53:24;;;;;;;14.88;4.00;;;17.50;99.90;;;;;;4963769;28;20189;-85
2022/08/08 06:55:50;;;;;;;10.38;3.60;;;17.50;99.90;;;;;;4952565;28;20432;-83
2022/08/08 06:58:16;;;;;;;11.18;3.90;;;17.50;99.90;;;;;;4954187;28;20034;-85
2022/08/08 07:00:48;;;;;;;15.57;3.60;;;17.50;99.90;;;;;;4934570;28;20122;-86
2022/08/08 07:03:42;;;;;;;9.27;3.53;;;17.60;99.90;;;;;;4970658;28;20444;-86
2022/08/08 07:06:09;;;;;;;9.43;3.60;;;17.60;99.90;;;;;;4951533;28;20088;-85
2022/08/08 07:08:45;;;;;;;11.13;4.07;;;17.70;99.90;;;;;;4971310;28;20043;-84
2022/08/08 07:11:16;;;;;;;11.55;3.90;;;17.70;99.90;;;;;;4936908;28;20053;-84
2022/08/08 07:13:46;;;;;;;11.93;4.13;;;17.90;99.90;;;;;;4970246;28;20173;-87
2022/08/08 07:16:20;;;;;;;12.38;4.18;;;18.00;99.90;;;;;;4953479;28;20178;-88
2022/08/08 07:19:07;;;;;;;11.15;4.30;;;18.10;99.90;;;;;;4973168;28;20081;-87
2022/08/08 07:21:56;;;;;;;11.35;3.88;;;18.30;99.90;;;;;;4966694;28;20050;-87
2022/08/08 07:24:42;;;;;;;15.85;3.50;;;18.50;99.90;;;;;;4968632;28;20042;-87
2022/08/08 07:27:13;;;;;;;9.43;3.45;;;18.60;99.90;;;;;;4967469;28;20144;-88
2022/08/08 07:29:41;;;;;;;10.30;3.20;;;18.70;99.90;;;;;;4953046;28;20567;-87
2022/08/08 07:32:09;;;;;;;8.52;3.05;;;18.80;99.90;;;;;;4934191;28;20089;-87
2022/08/08 07:34:35;;;;;;;11.00;3.22;;;18.90;99.90;;;;;;4939518;28;20026;-88
2022/08/08 07:37:05;;;;;;;10.70;3.47;;;19.00;99.90;;;;;;4970639;28;20041;-88
2022/08/08 07:39:31;;;;;;;10.35;2.70;;;19.10;99.90;;;;;;4952548;28;20427;-87
2022/08/08 07:41:57;;;;;;;7.32;2.30;;;19.10;99.90;;;;;;4966025;28;20046;-87
2022/08/08 07:44:24;;;;;;;7.90;2.30;;;19.10;99.90;;;;;;4968136;28;20043;-88
2022/08/08 07:46:50;;;;;;;9.15;2.38;;;19.10;99.90;;;;;;4954908;28;20050;-86
2022/08/08 07:49:16;;;;;;;9.40;2.63;;;19.10;99.90;;;;;;4939244;28;20105;-87
2022/08/08 07:51:43;;;;;;;8.15;2.50;;;19.10;99.90;;;;;;4954643;28;20051;-88
2022/08/08 07:54:29;;;;;;;8.20;2.25;;;19.10;99.90;;;;;;4952539;28;20448;-87
2022/08/08 07:57:18;;;;;;;5.35;1.88;;;19.00;99.90;;;;;;4986450;28;20263;-86
2022/08/08 07:59:53;;;;;;;7.75;2.20;;;19.00;99.90;;;;;;4927796;28;20055;-86
2022/08/08 08:02:24;;;;;;;7.80;1.90;;;18.90;99.90;;;;;;4950389;28;20035;-86
2022/08/08 08:04:55;;;;;;;6.72;2.00;;;18.80;99.90;;;;;;4966248;28;20104;-87
2022/08/08 08:07:24;;;;;;;8.55;1.98;;;18.80;99.90;;;;;;4941939;28;20046;-86
2022/08/08 08:09:50;;;;;;;6.28;1.80;;;18.80;99.90;;;;;;4953371;28;20043;-87
2022/08/08 08:24:58;;;;;;;6.45;1.70;;;19.70;99.90;;;;;;4889651;29;20091;-85
2022/08/08 08:36:33;;;;;;;;;;;;;;;;;;;;;
2022/08/08 08:39:28;;;;;;;6.25;1.80;;;20.00;99.90;;;;;;4877362;29;20051;-88
2022/08/08 08:42:00;;;;;;;6.22;1.80;;;20.40;99.90;;;;;;4894018;29;20067;-87
2022/08/08 08:48:54;;;;;;;;;;;;;;;;;;;;;
2022/08/08 08:52:17;;;;;;;;;;;;;;;;;;;;;
2022/08/08 08:55:27;;;;;;;;;;;;;;;;;;;;;
2022/08/08 08:58:34;;;;;;;5.63;1.58;;;20.40;99.90;;;;;;4893514;29;20558;-88
2022/08/08 09:01:03;;;;;;;5.10;1.80;;;20.30;99.90;;;;;;4942008;28;20043;-86
2022/08/08 09:07:49;;;;;;;;;;;;;;;;;;;;;
2022/08/08 09:10:42;;;;;;;4.93;1.48;;;19.90;99.90;;;;;;4966437;28;20042;-86
2022/08/08 09:17:55;;;;;;;4.03;1.50;;;19.90;99.90;;;;;;4924829;28;20047;-88
2022/08/08 09:29:24;;;;;;;9.73;1.83;;;20.00;99.90;;;;;;4823209;29;20049;-87
2022/08/08 09:43:32;;;;;;;5.57;1.65;;;20.10;99.90;;;;;;4865029;29;20513;-88
2022/08/08 09:46:00;;;;;;;7.18;1.80;;;20.20;99.90;;;;;;4852077;29;20053;-88
2022/08/08 09:48:32;;;;;;;4.38;1.70;;;20.20;99.90;;;;;;4901093;29;20915;-88
2022/08/08 09:50:59;;;;;;;6.72;1.85;;;20.30;99.90;;;;;;4927355;28;20099;-88
2022/08/08 09:54:03;;;;;;;6.55;1.80;;;20.50;99.90;;;;;;4931365;29;20097;-88
2022/08/08 09:56:33;;;;;;;4.88;1.60;;;20.50;99.90;;;;;;4914607;29;20103;-88
2022/08/08 09:59:04;;;;;;;7.18;1.60;;;20.50;99.90;;;;;;4914274;28;20143;-89
2022/08/08 10:01:33;;;;;;;5.60;1.50;;;20.60;99.90;;;;;;4937057;29;20035;-89
2022/08/08 10:04:00;;;;;;;4.15;1.40;;;20.60;99.90;;;;;;4954048;28;20114;-90
2022/08/08 10:06:26;;;;;;;7.32;1.95;;;20.70;99.90;;;;;;4926015;28;20043;-88
2022/08/08 10:08:52;;;;;;;4.70;1.40;;;20.70;99.90;;;;;;4942979;28;20087;-88
2022/08/08 10:11:22;;;;;;;4.72;1.30;;;20.70;99.90;;;;;;4973262;28;20065;-88
2022/08/08 10:13:58;;;;;;;7.65;1.60;;;20.80;99.90;;;;;;4976197;28;20126;-89
2022/08/08 10:16:35;;;;;;;4.18;1.27;;;20.80;99.90;;;;;;4977079;28;20050;-88
2022/08/08 10:19:03;;;;;;;6.00;1.50;;;20.80;99.90;;;;;;4968840;28;20047;-89
2022/08/08 10:21:34;;;;;;;4.13;1.58;;;21.00;99.90;;;;;;4968435;28;20123;-88
2022/08/08 10:24:10;;;;;;;4.47;1.42;;;21.00;99.90;;;;;;4947699;28;20081;-88
2022/08/08 10:26:46;;;;;;;7.70;1.70;;;21.10;99.90;;;;;;4951301;28;20038;-88
2022/08/08 10:29:13;;;;;;;6.70;1.50;;;21.10;99.90;;;;;;4951924;28;21267;-88
2022/08/08 10:34:27;;;;;;;4.90;1.30;;;21.30;99.90;;;;;;4956018;28;20043;-88
2022/08/08 10:36:53;;;;;;;5.63;1.60;;;21.40;99.90;;;;;;4955926;28;20074;-88
2022/08/08 10:39:26;;;;;;;6.60;1.65;;;21.30;99.90;;;;;;4940436;28;20039;-88
2022/08/08 10:41:59;;;;;;;3.28;1.40;;;21.40;99.90;;;;;;4969524;28;20035;-87
2022/08/08 10:44:36;;;;;;;6.07;1.38;;;21.40;99.90;;;;;;4952768;28;20117;-88
2022/08/08 10:47:15;;;;;;;4.30;1.40;;;21.40;99.90;;;;;;4955326;28;20050;-88
2022/08/08 10:49:48;;;;;;;3.85;1.35;;;21.40;99.90;;;;;;4982317;28;20128;-89
2022/08/08 10:52:28;;;;;;;4.95;1.90;;;21.40;99.90;;;;;;4956763;28;20313;-88
2022/08/08 10:54:57;;;;;;;6.13;1.60;;;21.40;99.90;;;;;;4950192;28;20039;-89
2022/08/08 10:57:23;;;;;;;6.65;1.77;;;21.40;99.90;;;;;;4954209;28;20041;-88
2022/08/08 10:59:57;;;;;;;6.10;1.55;;;21.30;99.90;;;;;;4955354;28;20103;-88
2022/08/08 11:02:31;;;;;;;3.70;1.27;;;21.30;99.90;;;;;;4954424;28;20528;-88
2022/08/08 11:05:02;;;;;;;4.22;1.40;;;21.30;99.90;;;;;;4954890;28;20039;-88
2022/08/08 11:07:32;;;;;;;4.70;1.40;;;21.30;99.90;;;;;;4931409;28;20077;-85
2022/08/08 11:10:04;;;;;;;5.95;1.55;;;20.50;99.90;;;;;;4954487;28;20058;-88
2022/08/08 11:12:33;;;;;;;5.07;1.35;;;21.10;99.90;;;;;;4935798;28;20047;-87
2022/08/08 11:15:00;;;;;;;5.53;1.55;;;21.10;99.90;;;;;;4937523;28;20044;-88
2022/08/08 11:17:30;;;;;;;4.95;1.45;;;21.10;99.90;;;;;;4937603;28;20310;-86
2022/08/08 11:20:01;;;;;;;4.63;1.40;;;21.00;99.90;;;;;;4954388;28;20047;-86
2022/08/08 11:22:31;;;;;;;4.05;1.42;;;21.00;99.90;;;;;;4923039;28;20050;-86
2022/08/08 11:25:00;;;;;;;6.28;1.88;;;21.00;99.90;;;;;;4967884;28;20034;-86
2022/08/08 11:27:31;;;;;;;6.25;1.33;;;21.00;99.90;;;;;;4954110;28;20046;-86
2022/08/08 11:29:57;;;;;;;3.80;1.35;;;21.00;99.90;;;;;;4972356;28;20074;-87
2022/08/08 11:32:25;;;;;;;4.93;1.40;;;21.10;99.90;;;;;;4936514;28;20050;-86
2022/08/08 11:35:03;;;;;;;4.75;1.55;;;21.20;99.90;;;;;;4969217;28;20121;-86
2022/08/08 11:37:29;;;;;;;4.88;1.50;;;22.40;99.90;;;;;;4953145;28;20031;-87
2022/08/08 11:39:56;;;;;;;6.03;1.70;;;21.20;99.90;;;;;;4955110;28;20128;-87
2022/08/08 11:42:25;;;;;;;5.60;1.40;;;21.20;99.90;;;;;;4949958;28;20038;-88
2022/08/08 11:44:52;;;;;;;4.25;1.30;;;21.30;99.90;;;;;;4937453;28;20523;-86
2022/08/08 11:47:21;;;;;;;7.15;1.70;;;21.20;99.90;;;;;;4937393;28;20496;-87
2022/08/08 11:49:49;;;;;;;4.28;1.40;;;21.20;99.90;;;;;;4954475;28;20042;-87
2022/08/08 11:52:15;;;;;;;3.90;1.38;;;21.20;99.90;;;;;;4950643;28;20089;-87
2022/08/08 11:54:44;;;;;;;3.78;1.30;;;21.30;99.90;;;;;;4953404;28;20035;-87
2022/08/08 11:57:17;;;;;;;5.80;1.50;;;21.40;99.90;;;;;;4951350;28;20034;-86
2022/08/08 12:00:06;;;;;;;4.85;1.50;;;21.40;99.90;;;;;;4951907;28;20043;-85
2022/08/08 12:02:43;;;;;;;4.65;1.50;;;21.50;99.90;;;;;;4950575;28;20053;-86
2022/08/08 12:05:10;;;;;;;4.80;1.55;;;21.60;99.90;;;;;;4950777;28;20121;-85
2022/08/08 12:08:03;;;;;;;5.65;1.58;;;21.60;99.90;;;;;;4966573;28;20042;-85
2022/08/08 12:10:29;;;;;;;6.07;1.88;;;21.60;99.90;;;;;;4949097;28;20050;-85
2022/08/08 12:13:08;;;;;;;4.65;1.50;;;21.70;99.90;;;;;;4950982;28;20038;-85
2022/08/08 12:15:35;;;;;;;4.57;1.48;;;21.70;99.90;;;;;;4936560;28;20031;-87
2022/08/08 12:18:20;;;;;;;5.47;1.45;;;21.70;99.90;;;;;;4953693;28;20591;-85
2022/08/08 12:20:46;;;;;;;5.82;1.40;;;21.70;99.90;;;;;;4967378;28;20602;-85
2022/08/08 12:23:12;;;;;;;6.07;1.52;;;21.80;99.90;;;;;;4953542;28;20047;-85
2022/08/08 12:25:38;;;;;;;8.20;1.48;;;21.80;99.90;;;;;;4953036;28;20121;-84
2022/08/08 12:28:12;;;;;;;3.75;1.20;;;21.90;99.90;;;;;;4952106;28;20043;-86
2022/08/08 12:30:39;;;;;;;4.15;1.45;;;21.90;99.90;;;;;;4965977;28;20057;-85
2022/08/08 12:33:19;;;;;;;4.35;1.40;;;22.00;99.90;;;;;;4933824;28;20138;-84
2022/08/08 12:35:46;;;;;;;5.38;1.38;;;22.00;99.90;;;;;;4948602;28;20282;-84
2022/08/08 12:38:12;;;;;;;6.07;1.50;;;22.10;99.90;;;;;;4933483;28;20117;-84
2022/08/08 12:40:43;;;;;;;5.28;1.20;;;22.20;99.90;;;;;;4934071;28;20125;-86
2022/08/08 12:43:10;;;;;;;4.00;1.23;;;22.20;99.90;;;;;;4935855;28;20039;-86
2022/08/08 12:45:39;;;;;;;5.82;1.40;;;22.30;99.90;;;;;;4935623;28;20152;-86
2022/08/08 12:48:22;;;;;;;3.30;1.30;;;22.30;99.90;;;;;;4951828;28;20050;-86
2022/08/08 12:50:50;;;;;;;3.40;1.33;;;22.40;99.90;;;;;;4951737;28;20043;-86
2022/08/08 12:53:27;;;;;;;4.22;1.20;;;22.50;99.90;;;;;;4952150;28;20045;-84
2022/08/08 12:55:58;;;;;;;7.80;1.55;;;22.60;99.90;;;;;;4962972;28;20046;-85
2022/08/08 12:58:26;;;;;;;5.85;1.80;;;22.50;99.90;;;;;;4950757;28;20403;-86
2022/08/08 13:00:52;;;;;;;7.47;1.50;;;22.60;99.90;;;;;;4936708;28;20497;-87
2022/08/08 13:03:26;;;;;;;7.55;1.70;;;22.60;99.90;;;;;;4965431;28;20050;-87
2022/08/08 13:06:12;;;;;;;7.90;1.73;;;22.60;99.90;;;;;;4949430;28;20397;-90
2022/08/08 13:08:50;;;;;;;6.13;1.73;;;22.60;99.90;;;;;;4949222;28;20039;-89
2022/08/08 13:11:40;;;;;;;6.18;1.60;;;22.70;99.90;;;;;;4951110;28;20038;-88
2022/08/08 13:14:14;;;;;;;6.47;1.70;;;22.90;99.90;;;;;;4967607;28;20050;-87
2022/08/08 13:16:41;;;;;;;5.85;1.45;;;23.10;99.90;;;;;;4934296;28;20053;-88
2022/08/08 13:19:08;;;;;;;5.93;1.65;;;23.10;99.90;;;;;;4934798;28;20039;-86
2022/08/08 13:22:00;;;;;;;5.20;1.63;;;23.10;99.90;;;;;;4952655;28;20039;-84
2022/08/08 13:24:27;;;;;;;4.77;1.70;;;22.90;99.90;;;;;;4942901;28;20085;-84
2022/08/08 13:27:10;;;;;;;8.30;1.50;;;22.80;99.90;;;;;;4949613;28;21622;-85
2022/08/08 13:29:38;;;;;;;;;;;22.70;99.90;;;;;;4951084;28;20034;-85
2022/08/08 13:32:05;;;;;;;5.13;1.58;;;22.70;99.90;;;;;;4950683;28;19972;-86
2022/08/08 13:34:36;;;;;;;8.13;1.60;;;22.90;99.90;;;;;;4948866;28;20046;-86
2022/08/08 13:37:07;;;;;;;5.03;1.50;;;22.80;99.90;;;;;;4964696;28;20043;-86
2022/08/08 13:39:33;;;;;;;4.57;1.60;;;22.80;99.90;;;;;;4979922;28;20045;-86
2022/08/08 13:41:59;;;;;;;5.90;1.70;;;22.80;99.90;;;;;;4951700;28;20035;-85
2022/08/08 13:44:27;;;;;;;7.00;1.63;;;22.60;99.90;;;;;;4966850;28;20418;-86
2022/08/08 13:46:54;;;;;;;5.82;1.60;;;22.50;99.90;;;;;;4952040;28;20043;-85
2022/08/08 13:49:22;;;;;;;8.38;2.10;;;22.40;99.90;;;;;;4950040;28;20424;-84
2022/08/08 13:52:04;;;;;;;4.20;1.30;;;22.20;99.90;;;;;;4935501;28;20206;-86
2022/08/08 13:54:34;;;;;;;3.42;1.35;;;22.20;99.90;;;;;;4963117;28;20515;-84
2022/08/08 13:57:01;;;;;;;5.50;1.60;;;22.20;99.90;;;;;;4964544;28;20038;-85
2022/08/08 13:59:39;;;;;;;4.70;1.60;;;22.20;99.90;;;;;;4933346;28;20042;-86
2022/08/08 14:02:22;;;;;;;5.47;1.50;;;22.20;99.90;;;;;;4964242;28;20042;-85
2022/08/08 14:04:51;;;;;;;6.90;1.52;;;22.20;99.90;;;;;;4946031;28;20069;-85
2022/08/08 14:07:20;;;;;;;6.15;1.50;;;22.10;99.90;;;;;;4966888;28;20065;-85
2022/08/08 14:09:46;;;;;;;7.72;1.55;;;22.00;99.90;;;;;;4960336;28;20137;-83
2022/08/08 14:12:14;;;;;;;7.10;1.90;;;21.90;99.90;;;;;;4965621;28;20130;-84
2022/08/08 14:14:44;;;;;;;4.82;1.30;;;21.80;99.90;;;;;;4936100;28;20509;-84
2022/08/08 14:17:11;;;;;;;6.20;1.60;;;21.70;99.90;;;;;;4963273;28;20047;-86
2022/08/08 14:19:42;;;;;;;6.10;1.55;;;21.70;99.90;;;;;;4964747;28;21716;-85
2022/08/08 14:22:25;;;;;;;7.90;1.70;;;21.70;99.90;;;;;;4966819;28;20066;-85
2022/08/08 14:24:57;;;;;;;6.07;1.90;;;21.70;99.90;;;;;;4965398;28;20133;-85
2022/08/08 14:27:32;;;;;;;5.80;1.95;;;21.60;99.90;;;;;;4947516;28;20106;-86
2022/08/08 14:30:00;;;;;;;8.13;1.95;;;21.60;99.90;;;;;;4949463;28;20035;-86